Achupallas, Argentina
Current Conditions -  °F | °C
As of 3:00 PM on Friday 21 Nov 2014 (Local Time) from SAEZ Reporting Station
Light Rain Light Rain  
Wind Chill: 64°   Ceiling: 7000
Heat Index: 64°   Visibility: 5mi
Dew Point: 59°   Wind: 7mph
Humidity: 83%   Direction: 180°S
Pressure: 29.91"   Gusts: NA
Location:  35.09°S, 59.88°W
Report Text: SAEZ 211800Z 18006KT 140V220 8000 -RA FEW016 OVC070 18/15 Q1013
Loading
Personal Weather Stations






























Interactive Weather Map New forecast layout! Learn more

10-Day Weather Forecast

Advertisements
Track Severe Weather on mobile